Cambria, IL (62915)

11:01 PM CDT on April 25, 2015 (GMT -0500)
Prairie Road | | Change Station
CLOSE
Current Station
Personal Weather Station
Location: Carterville, IL
Elevation: 436 ft
Nearby Weather Stations

Elev 436 ft 37.76 °N, 89.11 °W | Updated 10 minutes ago

Overcast
Overcast
57.0 °F
Feels Like 57.0 °F
N
0.0
Wind Variable Wind from NE

Today
High -- | Low -- °F
--% Chance of Precip.
Yesterday
High -- | Low -- °F
Precip. -- in
6:08 AM 7:41 PM
First Quarter, 52% visible
Pressure 29.65 in
Visibility 7.0 miles
Clouds Overcast 500 ft
Dew Point 56 °F
Humidity 98%
Rainfall 0.55 in
Snow Depth Not available.
UV 0 out of 12
Pollen 6.30 out of 12
Air Quality Not available.
Flu Activity Regional
METAR KMWA 260335Z AUTO 35008G16KT 7SM OVC005 14/13 A2965 RMK AO2

More Conditions Fewer Conditions

Pressure 29.65 in
Visibility 7.0 miles
Clouds Overcast 500 ft
Dew Point 56 °F
Humidity 98%
Rainfall 0.55 in
Snow Depth Not available.
UV 0 out of 12
Pollen 6.30 out of 12
Air Quality Not available.
Flu Activity Regional
METAR KMWA 260335Z AUTO 35008G16KT 7SM OVC005 14/13 A2965 RMK AO2

More Conditions Fewer Conditions

The full scope of the disaster following a powerful 7.8-magnitude earthquake in Nepal may not come into view for days, but global charities are already sending emergency aid. Click to see how you can help.

10-Day Weather Forecast

Almanac

Astronomy

Apr. 25, 2015 Rise Set
Actual Time
Civil Twilight
Nautical Twilight
Astronomical Twilight
Moon
Length of Visible Light
Length of Day
Tomorrow will be .
, % of the Moon is Illuminated

Today's Extremes

State Highs State Lows

Community

WunderPhotos

Upload Photos

1,816,935 photos uploaded!

WunderBlogs® & News

Nearby

Air Quality

  Air Quality AQ Index Pollutant
Not available.

Snow Depth

Station Depth Elevation

Earthquake Activity

City Distance Mag. Time & Date
Minimum magnitude displayed is 2.5.

Coastal Water Temperatures

Place Temperature

Stations

Nearby Weather Stations

Station Location Temp. Windchill Dew Point Humidity Wind Precip. Elev Updated Type